首页
METAR-TAF:

METAR-TAF

机场 :

庫拉索國際機場

库拉索, 荷属安的列斯

纬度: 12-12N, 经度: 068-58W, 海拔: 9米

当前天气观测

该预报发布于57分钟前的06:00 UTC
风速14节,风向东转东南
温度 27°C
湿度 74%
气压 1012 hPa
能见度10公里或以上

METAR: TNCC 190600Z AUTO 11014KT 9999 NCD 27/22 Q1012

时间: 02:57 (06:57 UTC)

预报

该预报发布于2小时和57分钟前的04:00 UTC
预报有效从19日的 06点(UTC)到 20日的 06点(UTC)
风速14节,风向
能见度10公里或以上
散云层高于1800英尺

TAF: TNCC 190400Z 1906/2006 10014KT 9999 SCT018

超过4000个机场的气象观测和天气预报(METAR&TAF报告)。

可查询的气象台以黄色和红色小点在地图上表示。

将鼠标移到小点上方,可查看气象台名称。

然后点击查看天气观测和预报。

如需切换地图:点击带黑十字的绿色按钮放大地图;点击带横线的绿色按钮缩小地图;或者点击绿色箭头查看邻近地区的地图。


METAR-TAF: